Time;durP1;ratioP1;P1;durP2;ratioP2;P2;SDS_P1;SDS_P2;PMS_P1;PMS_P2;Temp;Humidity;BMP_temperature;BMP_pressure;BME280_temperature;BME280_humidity;BME280_pressure;Samples;Min_cycle;Max_cycle;Signal;HPM_P1;HPM_P2
2021/03/04 00:00:12;;;;;;;115.50;38.97;;;;;;;3.98;94.61;102512.53;4958758;28;20042;-74
2021/03/04 00:02:38;;;;;;;108.03;36.43;;;;;;;3.98;94.49;102498.94;5002028;28;20098;-73
2021/03/04 00:05:05;;;;;;;111.50;37.78;;;;;;;3.92;94.24;102508.66;4995854;28;20443;-74
2021/03/04 00:07:31;;;;;;;101.87;36.50;;;;;;;4.00;94.31;102502.47;4960375;28;20052;-74
2021/03/04 00:09:56;;;;;;;109.13;38.40;;;;;;;3.95;94.31;102496.16;4976161;28;20323;-74
2021/03/04 00:12:22;;;;;;;113.53;39.13;;;;;;;3.92;94.25;102494.28;4973161;28;20396;-74
2021/03/04 00:14:47;;;;;;;119.53;40.00;;;;;;;3.92;94.22;102506.09;4974795;28;20377;-75
2021/03/04 00:17:13;;;;;;;123.18;39.08;;;;;;;3.93;94.35;102505.34;4961338;28;20176;-74
2021/03/04 00:19:38;;;;;;;139.23;42.80;;;;;;;3.92;94.34;102519.69;4982261;28;20309;-75
2021/03/04 00:22:04;;;;;;;127.70;41.40;;;;;;;3.92;94.61;102523.91;4962452;28;20463;-74
2021/03/04 00:24:29;;;;;;;132.05;41.15;;;;;;;4.11;94.42;102537.25;5000396;28;20369;-74
2021/03/04 00:26:55;;;;;;;126.47;43.28;;;;;;;4.19;93.81;102535.28;4975646;28;20500;-73
2021/03/04 00:29:20;;;;;;;123.38;42.00;;;;;;;4.13;94.22;102520.44;4962103;28;20356;-74
2021/03/04 00:31:46;;;;;;;127.30;43.28;;;;;;;4.10;94.12;102516.78;4971578;28;20424;-74
2021/03/04 00:34:11;;;;;;;134.13;43.90;;;;;;;4.04;94.41;102514.66;4993521;28;20421;-74
2021/03/04 00:36:37;;;;;;;122.63;42.50;;;;;;;4.01;94.42;102509.34;4982175;28;20210;-74
2021/03/04 00:39:06;;;;;;;114.55;39.63;;;;;;;4.01;94.11;102516.97;4991550;28;20474;-74
2021/03/04 00:41:32;;;;;;;114.80;42.03;;;;;;;4.08;94.29;102509.03;4964767;28;20047;-74
2021/03/04 00:43:57;;;;;;;114.15;39.78;;;;;;;4.11;93.95;102511.81;4979880;28;20347;-74
2021/03/04 00:46:23;;;;;;;109.50;39.00;;;;;;;3.95;93.73;102519.06;4944048;28;20021;-74
2021/03/04 00:48:48;;;;;;;97.50;35.25;;;;;;;3.86;94.18;102521.75;4974605;28;20343;-74
2021/03/04 00:51:13;;;;;;;117.70;39.55;;;;;;;3.83;94.07;102518.97;4964004;28;20253;-74
2021/03/04 00:53:39;;;;;;;103.45;36.83;;;;;;;3.77;94.26;102507.44;4969290;28;20564;-74
2021/03/04 00:56:05;;;;;;;108.90;36.70;;;;;;;3.74;94.08;102508.97;4958353;28;20331;-74
2021/03/04 00:58:30;;;;;;;95.97;35.63;;;;;;;3.79;93.90;102516.06;4963551;28;20325;-74
2021/03/04 01:00:56;;;;;;;92.35;33.95;;;;;;;3.81;93.84;102517.06;4958305;28;20335;-74
2021/03/04 01:03:21;;;;;;;92.57;32.78;;;;;;;3.77;94.10;102517.59;4957149;28;20372;-74
2021/03/04 01:05:47;;;;;;;97.20;35.38;;;;;;;3.86;93.81;102515.78;4944247;28;20022;-74
2021/03/04 01:08:12;;;;;;;107.70;35.72;;;;;;;3.88;93.88;102514.22;4964668;28;20370;-74
2021/03/04 01:10:39;;;;;;;101.55;38.13;;;;;;;3.80;94.20;102502.59;4976769;28;20027;-74
2021/03/04 01:13:06;;;;;;;105.70;35.30;;;;;;;3.77;94.17;102507.44;4974558;28;20029;-74
2021/03/04 01:15:32;;;;;;;99.23;35.53;;;;;;;3.88;93.75;102511.69;4977535;28;20028;-74
2021/03/04 01:17:58;;;;;;;102.78;36.05;;;;;;;3.83;93.73;102507.91;4984123;28;20052;-75
2021/03/04 01:20:24;;;;;;;97.95;36.13;;;;;;;3.81;93.90;102502.72;4987367;28;20350;-74
2021/03/04 01:22:50;;;;;;;112.82;40.42;;;;;;;3.81;93.98;102504.38;4972832;28;20025;-75
2021/03/04 01:25:16;;;;;;;117.45;38.30;;;;;;;3.72;94.34;102500.34;4979267;28;20389;-74
2021/03/04 01:27:42;;;;;;;115.23;39.00;;;;;;;3.69;94.55;102494.16;4986473;28;20024;-74
2021/03/04 01:30:10;;;;;;;134.73;41.30;;;;;;;3.67;94.59;102476.25;5005115;28;20025;-74
2021/03/04 01:32:36;;;;;;;129.67;42.47;;;;;;;3.66;94.90;102476.13;4976550;28;20025;-74
2021/03/04 01:35:03;;;;;;;125.47;41.00;;;;;;;3.67;95.11;102473.69;4964426;28;20338;-74
2021/03/04 01:37:29;;;;;;;132.13;43.30;;;;;;;3.71;94.72;102469.75;4988240;28;20186;-74
2021/03/04 01:39:54;;;;;;;133.95;41.92;;;;;;;3.82;94.98;102481.59;4994080;28;20380;-74
2021/03/04 01:42:20;;;;;;;134.07;43.05;;;;;;;3.83;95.00;102469.78;4980023;28;20315;-74
2021/03/04 01:44:45;;;;;;;130.32;41.22;;;;;;;3.77;94.83;102454.06;4972583;28;20024;-74
2021/03/04 01:47:11;;;;;;;147.50;44.33;;;;;;;3.74;94.93;102458.16;4985658;28;20304;-73
2021/03/04 01:49:37;;;;;;;139.15;43.33;;;;;;;3.78;95.20;102458.38;4961748;28;20461;-73
2021/03/04 01:52:03;;;;;;;108.13;38.13;;;;;;;3.85;95.18;102446.25;4996540;28;20591;-73
2021/03/04 01:54:28;;;;;;;116.95;41.03;;;;;;;3.73;94.75;102446.22;5004966;28;20060;-74
2021/03/04 01:56:54;;;;;;;118.60;41.50;;;;;;;3.71;94.74;102441.78;4978751;28;20047;-74
2021/03/04 01:59:22;;;;;;;102.70;37.28;;;;;;;3.68;94.84;102444.09;4965321;28;20283;-74
2021/03/04 02:01:48;;;;;;;118.77;39.97;;;;;;;3.72;94.96;102446.97;4982753;28;20047;-74
2021/03/04 02:04:14;;;;;;;124.97;38.73;;;;;;;3.65;94.73;102439.66;4984962;28;20623;-73
2021/03/04 02:06:51;;;;;;;109.22;39.00;;;;;;;3.70;94.84;102440.91;4979762;28;20025;-74
2021/03/04 02:09:20;;;;;;;112.95;36.88;;;;;;;3.66;94.90;102432.94;5004266;28;20055;-74
2021/03/04 02:11:52;;;;;;;107.53;37.30;;;;;;;3.68;95.07;102437.34;4980440;28;20017;-74
2021/03/04 02:14:25;;;;;;;114.20;38.40;;;;;;;3.71;94.82;102437.59;4965076;28;20051;-74
2021/03/04 02:16:55;;;;;;;103.10;36.77;;;;;;;3.88;94.79;102440.50;4987478;28;20588;-74
2021/03/04 02:19:46;;;;;;;121.10;39.97;;;;;;;3.80;94.59;102426.34;4985560;28;20151;-74
2021/03/04 02:22:56;;;;;;;129.10;38.70;;;;;;;3.69;94.72;102426.41;4970386;28;20032;-74
2021/03/04 02:25:43;;;;;;;125.87;40.03;;;;;;;3.72;94.84;102418.13;4871257;28;20093;-73
2021/03/04 02:28:09;;;;;;;120.68;38.92;;;;;;;3.68;95.04;102413.59;4982756;28;20037;-74
2021/03/04 02:30:36;;;;;;;111.37;39.47;;;;;;;3.68;95.13;102406.84;4961260;28;20051;-74
2021/03/04 02:33:08;;;;;;;127.67;40.70;;;;;;;3.68;95.03;102411.94;4979503;28;20065;-74
2021/03/04 02:35:35;;;;;;;119.73;38.33;;;;;;;3.69;95.23;102407.75;4972608;28;20033;-74
2021/03/04 02:38:10;;;;;;;128.70;41.10;;;;;;;3.66;95.15;102403.31;4976307;28;20040;-75
2021/03/04 02:40:37;;;;;;;136.87;39.47;;;;;;;3.62;95.20;102388.63;4985686;28;20028;-74
2021/03/04 02:43:10;;;;;;;127.27;39.00;;;;;;;3.60;95.43;102397.78;4980248;28;20103;-74
2021/03/04 02:45:36;;;;;;;125.10;39.00;;;;;;;3.65;95.38;102399.00;4984966;28;20052;-74
2021/03/04 02:48:03;;;;;;;123.78;40.50;;;;;;;3.63;95.18;102395.47;4987224;28;20116;-74
2021/03/04 02:50:30;;;;;;;125.87;39.00;;;;;;;3.64;95.58;102388.72;4959413;28;20140;-74
2021/03/04 02:52:56;;;;;;;120.20;38.93;;;;;;;3.67;95.27;102378.78;4968322;28;20056;-73
2021/03/04 02:55:23;;;;;;;120.78;39.40;;;;;;;3.58;95.69;102371.38;4985206;28;20384;-74
2021/03/04 02:57:49;;;;;;;121.80;38.10;;;;;;;3.58;95.70;102361.19;5000397;28;20055;-74
2021/03/04 03:00:24;;;;;;;123.10;38.70;;;;;;;3.54;95.68;102361.72;4974320;28;20118;-74
2021/03/04 03:02:50;;;;;;;127.47;39.23;;;;;;;3.53;95.96;102347.22;4976696;28;20068;-74
2021/03/04 03:05:20;;;;;;;145.53;40.37;;;;;;;3.60;95.70;102344.41;4954852;28;20025;-74
2021/03/04 03:07:46;;;;;;;146.87;41.13;;;;;;;3.56;95.67;102349.13;4997532;28;20124;-74
2021/03/04 03:10:14;;;;;;;140.70;38.97;;;;;;;3.61;95.94;102353.81;4986805;28;20495;-73
2021/03/04 03:12:44;;;;;;;135.67;38.53;;;;;;;3.58;96.00;102361.19;4963725;28;20550;-73
2021/03/04 03:15:13;;;;;;;128.17;38.67;;;;;;;3.61;95.71;102361.44;4980732;28;20028;-74
2021/03/04 03:17:39;;;;;;;130.37;40.27;;;;;;;3.64;95.74;102364.19;4997397;28;20127;-74
2021/03/04 03:20:07;;;;;;;122.72;38.20;;;;;;;3.62;95.52;102360.66;4974056;28;20060;-74
2021/03/04 03:22:33;;;;;;;127.97;40.37;;;;;;;3.68;95.66;102356.03;4983834;28;20059;-74
2021/03/04 03:24:58;;;;;;;129.30;36.95;;;;;;;3.66;95.47;102346.53;4994882;28;20334;-74
2021/03/04 03:27:26;;;;;;;108.70;34.92;;;;;;;3.69;95.31;102349.28;4980549;28;20373;-74
2021/03/04 03:29:51;;;;;;;118.97;38.43;;;;;;;3.62;95.22;102344.53;4985126;28;20128;-74
2021/03/04 03:32:20;;;;;;;112.20;35.95;;;;;;;3.68;95.00;102334.81;4978334;28;20330;-74
2021/03/04 03:34:46;;;;;;;116.27;39.60;;;;;;;3.68;95.00;102345.88;4985996;28;20150;-74
2021/03/04 03:37:12;;;;;;;121.70;38.30;;;;;;;3.69;94.94;102342.56;4957769;28;20650;-73
2021/03/04 03:39:38;;;;;;;;;;;;;;;3.68;94.91;102338.25;4964742;28;20116;-74
2021/03/04 03:42:05;;;;;;;107.20;34.03;;;;;;;3.72;94.99;102336.81;4954329;28;19956;-74
2021/03/04 03:44:32;;;;;;;117.43;38.27;;;;;;;3.70;94.51;102343.44;4971110;28;20033;-74
2021/03/04 03:46:57;;;;;;;117.53;36.23;;;;;;;3.68;94.60;102338.25;4976476;28;20581;-74
2021/03/04 03:49:23;;;;;;;105.38;35.53;;;;;;;3.73;94.76;102343.66;4973300;28;20029;-74
2021/03/04 03:51:49;;;;;;;103.30;36.17;;;;;;;3.72;94.64;102352.94;4991177;28;20079;-74
2021/03/04 03:54:16;;;;;;;103.60;37.20;;;;;;;3.68;94.66;102356.03;4984256;28;20307;-74
2021/03/04 03:56:42;;;;;;;104.63;34.97;;;;;;;3.73;94.16;102349.63;4992755;28;20028;-74
2021/03/04 03:59:09;;;;;;;89.35;33.30;;;;;;;3.73;94.01;102354.72;4977970;28;20330;-74
2021/03/04 04:01:36;;;;;;;91.87;32.77;;;;;;;3.63;94.19;102347.19;4980345;28;20028;-74
2021/03/04 04:04:03;;;;;;;102.40;35.53;;;;;;;3.79;93.91;102345.78;4972513;28;20040;-74
2021/03/04 04:06:29;;;;;;;;;;;;;;;3.85;92.90;102344.56;4968457;28;20029;-74
2021/03/04 04:08:56;;;;;;;103.10;32.72;;;;;;;3.83;92.73;102346.13;4970444;28;19940;-74
2021/03/04 04:11:26;;;;;;;104.30;33.60;;;;;;;3.75;92.95;102331.97;4944702;28;20140;-74
2021/03/04 04:13:52;;;;;;;93.07;32.23;;;;;;;3.75;93.14;102335.38;4979672;28;20021;-74
2021/03/04 04:16:18;;;;;;;110.85;34.63;;;;;;;3.85;93.19;102333.53;4958847;28;20052;-74
2021/03/04 04:18:45;;;;;;;105.43;36.63;;;;;;;3.88;93.06;102336.28;4962664;28;20319;-74
2021/03/04 04:21:12;;;;;;;110.83;36.10;;;;;;;3.84;92.79;102331.75;4989868;28;20013;-73
2021/03/04 04:23:39;;;;;;;115.90;36.77;;;;;;;3.85;93.02;102329.31;4978762;28;20136;-74
2021/03/04 04:26:05;;;;;;;134.03;38.90;;;;;;;3.88;92.91;102323.56;4984741;28;20032;-74
2021/03/04 04:28:30;;;;;;;113.80;36.17;;;;;;;3.89;92.66;102327.88;4976751;28;20047;-74
2021/03/04 04:30:56;;;;;;;124.10;38.28;;;;;;;3.85;93.06;102328.44;4981262;28;20025;-73
2021/03/04 04:33:21;;;;;;;118.40;35.92;;;;;;;3.77;93.23;102324.44;4957657;28;20336;-74
2021/03/04 04:35:48;;;;;;;134.30;38.40;;;;;;;3.68;93.60;102320.47;4995245;28;20029;-74
2021/03/04 04:38:15;;;;;;;144.23;40.67;;;;;;;3.67;94.08;102321.22;4962318;28;20118;-74
2021/03/04 04:40:41;;;;;;;143.33;39.63;;;;;;;3.75;94.24;102319.25;4960377;28;20029;-74
2021/03/04 04:43:07;;;;;;;155.88;41.90;;;;;;;3.76;93.86;102328.66;4978581;28;20047;-74
2021/03/04 04:45:33;;;;;;;170.90;42.80;;;;;;;3.75;93.62;102317.59;5001858;28;20021;-74
2021/03/04 04:47:58;;;;;;;176.82;47.22;;;;;;;3.66;93.73;102316.91;4964795;28;20315;-73
2021/03/04 04:50:24;;;;;;;166.60;43.78;;;;;;;3.71;94.17;102313.06;4972764;28;20556;-74
2021/03/04 04:52:49;;;;;;;156.05;43.08;;;;;;;3.75;93.97;102304.00;4965223;28;20309;-73
2021/03/04 04:55:15;;;;;;;159.95;45.10;;;;;;;3.79;93.85;102303.44;4987577;28;20361;-73
2021/03/04 04:57:40;;;;;;;164.70;45.88;;;;;;;3.89;93.77;102305.00;4988121;28;20338;-73
2021/03/04 05:00:09;;;;;;;159.73;47.35;;;;;;;3.88;93.26;102305.78;4971016;28;20365;-74
2021/03/04 05:02:34;;;;;;;157.17;45.63;;;;;;;3.83;93.44;102294.41;4974609;28;20863;-73
2021/03/04 05:05:00;;;;;;;180.70;46.30;;;;;;;3.81;93.52;102288.31;4969636;28;20095;-74
2021/03/04 05:07:25;;;;;;;154.63;46.03;;;;;;;3.84;93.45;102288.53;4967860;28;20310;-73
2021/03/04 05:09:51;;;;;;;164.73;47.33;;;;;;;3.74;93.68;102282.78;4973873;28;20379;-74
2021/03/04 05:12:16;;;;;;;157.52;44.72;;;;;;;3.74;93.45;102276.81;4966281;28;20320;-74
2021/03/04 05:14:42;;;;;;;177.73;49.28;;;;;;;3.68;93.54;102269.63;4962343;28;20375;-74
2021/03/04 05:17:08;;;;;;;161.48;47.35;;;;;;;3.72;93.81;102263.13;4980478;28;20443;-74
2021/03/04 05:19:33;;;;;;;173.02;48.60;;;;;;;3.64;94.08;102272.72;4962192;28;20303;-73
2021/03/04 05:21:59;;;;;;;189.88;52.95;;;;;;;3.62;94.32;102266.66;4980120;28;20303;-74
2021/03/04 05:24:24;;;;;;;196.05;53.55;;;;;;;3.53;94.75;102277.75;4994541;28;20362;-73
2021/03/04 05:26:50;;;;;;;206.50;54.08;;;;;;;3.47;94.95;102273.09;4961032;28;20309;-73
2021/03/04 05:29:16;;;;;;;211.88;52.45;;;;;;;3.51;95.35;102279.28;4970870;28;20033;-74
2021/03/04 05:31:41;;;;;;;201.82;52.63;;;;;;;3.52;95.36;102276.88;4965832;28;20348;-73
2021/03/04 05:34:07;;;;;;;184.68;50.90;;;;;;;3.57;94.77;102280.63;4990820;28;20488;-73
2021/03/04 05:36:32;;;;;;;186.15;50.28;;;;;;;3.59;94.61;102274.03;4978197;28;20128;-73
2021/03/04 05:38:58;;;;;;;185.27;50.20;;;;;;;3.62;94.19;102269.19;4970164;28;20345;-73
2021/03/04 05:41:24;;;;;;;178.20;49.70;;;;;;;3.57;94.07;102275.56;4975423;28;20424;-74
2021/03/04 05:43:50;;;;;;;170.45;51.22;;;;;;;3.69;93.98;102270.50;4973724;28;20032;-73
2021/03/04 05:46:19;;;;;;;162.10;46.90;;;;;;;3.60;93.74;102274.94;5004428;28;20029;-74
2021/03/04 05:48:48;;;;;;;167.50;51.07;;;;;;;3.58;94.03;102279.91;4952359;28;20033;-73
2021/03/04 05:51:14;;;;;;;172.63;51.13;;;;;;;3.56;94.37;102275.44;4988771;22;20079;-72
2021/03/04 05:53:47;;;;;;;165.27;48.00;;;;;;;3.61;94.17;102282.66;4963065;28;20157;-72
2021/03/04 05:56:15;;;;;;;151.23;46.47;;;;;;;3.66;93.98;102281.34;4952298;28;20053;-72
2021/03/04 05:58:43;;;;;;;151.90;45.90;;;;;;;3.61;93.62;102287.75;4956562;28;20161;-73
2021/03/04 06:01:08;;;;;;;152.43;46.67;;;;;;;3.62;94.01;102283.53;4946776;28;20108;-72
2021/03/04 06:03:34;;;;;;;156.75;47.10;;;;;;;3.55;94.15;102286.38;4960721;28;20545;-73
2021/03/04 06:05:59;;;;;;;158.95;46.13;;;;;;;3.56;94.08;102283.06;4959849;28;20407;-72
2021/03/04 06:08:25;;;;;;;162.70;47.80;;;;;;;3.53;94.31;102271.00;4961364;28;20321;-71
2021/03/04 06:10:50;;;;;;;155.20;46.05;;;;;;;3.46;94.61;102273.00;4933951;28;20333;-72
2021/03/04 06:13:16;;;;;;;157.43;44.10;;;;;;;3.38;94.62;102269.88;4952471;28;20328;-72
2021/03/04 06:15:41;;;;;;;155.07;44.60;;;;;;;3.34;94.43;102268.78;4945113;28;20083;-72
2021/03/04 06:18:07;;;;;;;160.57;44.72;;;;;;;3.30;94.60;102259.16;4958203;28;20528;-71
2021/03/04 06:20:37;;;;;;;157.48;45.40;;;;;;;3.35;94.14;102254.41;4956457;28;20399;-72
2021/03/04 06:23:04;;;;;;;153.77;44.23;;;;;;;3.32;94.21;102256.72;4949754;28;20140;-72
2021/03/04 06:25:29;;;;;;;;;;;;;;;3.35;94.55;102256.97;4958075;28;20026;-72
2021/03/04 06:27:55;;;;;;;163.97;45.63;;;;;;;3.30;94.07;102261.69;4949755;28;20088;-72
2021/03/04 06:30:20;;;;;;;163.25;44.13;;;;;;;3.31;94.27;102255.84;4938468;28;20391;-73
2021/03/04 06:33:00;;;;;;;142.63;43.30;;;;;;;3.27;94.05;102258.03;4940797;28;20428;-72
2021/03/04 06:35:43;;;;;;;136.20;41.20;;;;;;;3.32;94.13;102261.81;4935433;28;20032;-72
2021/03/04 06:38:20;;;;;;;160.50;45.23;;;;;;;3.29;93.93;102257.38;4962311;28;20071;-72
2021/03/04 06:40:47;;;;;;;157.60;45.17;;;;;;;3.29;93.96;102254.84;4925535;28;20026;-72
2021/03/04 06:43:27;;;;;;;152.97;46.27;;;;;;;3.35;94.05;102262.03;4925366;28;20108;-72
2021/03/04 06:46:03;;;;;;;138.60;41.20;;;;;;;3.34;93.96;102265.34;4934924;28;20057;-72
2021/03/04 06:48:29;;;;;;;158.73;46.30;;;;;;;3.37;93.79;102269.00;4948789;28;20617;-72
2021/03/04 06:50:59;;;;;;;162.93;48.90;;;;;;;3.42;93.84;102274.41;4954222;28;20025;-72
2021/03/04 06:53:26;;;;;;;164.17;50.17;;;;;;;3.41;93.40;102272.66;4952645;28;20018;-72
2021/03/04 06:55:53;;;;;;;152.10;46.93;;;;;;;3.39;93.06;102271.66;4949972;28;20029;-72
2021/03/04 06:58:35;;;;;;;168.57;48.93;;;;;;;3.37;92.93;102270.66;4961785;28;20056;-72
2021/03/04 07:01:14;;;;;;;152.23;47.33;;;;;;;3.39;92.82;102279.28;4945396;28;20038;-71
2021/03/04 07:03:54;;;;;;;164.30;49.20;;;;;;;3.45;93.10;102284.81;4925325;28;20658;-71
2021/03/04 07:06:24;;;;;;;166.80;48.03;;;;;;;3.41;92.76;102282.81;4944050;28;20026;-71
2021/03/04 07:08:51;;;;;;;148.87;46.10;;;;;;;3.38;92.93;102287.66;4925080;28;20032;-73
2021/03/04 07:11:19;;;;;;;156.00;48.30;;;;;;;3.44;92.77;102290.66;4935295;28;20030;-73
2021/03/04 07:13:45;;;;;;;151.37;47.03;;;;;;;3.37;92.56;102296.06;4924848;28;20156;-73
2021/03/04 07:16:28;;;;;;;137.63;44.60;;;;;;;3.43;92.60;102302.47;4928241;28;20025;-73
2021/03/04 07:18:56;;;;;;;143.07;47.93;;;;;;;3.44;92.52;102295.75;4959877;28;20033;-72
2021/03/04 07:21:26;;;;;;;135.33;41.47;;;;;;;3.48;92.40;102295.19;4954849;28;20116;-72
2021/03/04 07:23:52;;;;;;;143.83;44.63;;;;;;;3.48;92.52;102297.75;4944911;28;20056;-71
2021/03/04 07:26:19;;;;;;;151.02;42.85;;;;;;;3.44;92.36;102299.16;4930159;28;20030;-74
2021/03/04 07:28:45;;;;;;;155.97;46.77;;;;;;;3.40;92.82;102301.38;4961249;28;20068;-74
2021/03/04 07:31:12;;;;;;;140.10;43.90;;;;;;;3.39;92.52;102294.50;4947161;28;20148;-73
2021/03/04 07:33:43;;;;;;;163.60;45.30;;;;;;;3.42;93.32;102294.75;4956787;28;20168;-71
2021/03/04 07:36:11;;;;;;;151.23;44.00;;;;;;;3.47;93.21;102293.44;4962739;28;20033;-73
2021/03/04 07:38:37;;;;;;;140.50;43.60;;;;;;;3.49;93.26;102296.97;4961785;28;20022;-72
2021/03/04 07:41:09;;;;;;;153.52;44.35;;;;;;;3.48;93.04;102296.84;4954710;28;20309;-73
2021/03/04 07:43:52;;;;;;;150.73;43.87;;;;;;;3.52;92.56;102292.13;4965272;28;20099;-73
2021/03/04 07:46:37;;;;;;;145.50;42.30;;;;;;;3.53;92.82;102287.91;4966100;28;20098;-73
2021/03/04 07:49:05;;;;;;;143.60;43.13;;;;;;;3.52;92.54;102287.03;4951491;28;20037;-73
2021/03/04 07:51:44;;;;;;;149.90;44.20;;;;;;;3.52;92.34;102281.06;4948860;28;20061;-73
2021/03/04 07:54:10;;;;;;;145.70;42.63;;;;;;;3.50;92.59;102278.41;4998779;28;20030;-74
2021/03/04 07:56:36;;;;;;;153.73;44.05;;;;;;;3.57;92.78;102272.13;5003958;28;20030;-73
2021/03/04 07:59:10;;;;;;;148.18;40.78;;;;;;;3.62;92.55;102266.66;4997118;28;20021;-72
2021/03/04 08:01:36;;;;;;;147.27;41.43;;;;;;;3.67;92.43;102267.88;4996813;28;20113;-73
2021/03/04 08:04:01;;;;;;;135.88;40.42;;;;;;;3.68;92.26;102282.34;4996600;28;20038;-73
2021/03/04 08:06:27;;;;;;;140.40;43.45;;;;;;;3.67;91.88;102278.03;4996783;28;20640;-72
2021/03/04 08:08:52;;;;;;;132.02;40.53;;;;;;;3.55;91.93;102274.56;4956276;28;20808;-73
2021/03/04 08:11:29;;;;;;;122.10;37.60;;;;;;;3.57;92.17;102273.00;4949118;28;20420;-72
2021/03/04 08:13:55;;;;;;;129.10;42.78;;;;;;;3.58;92.50;102272.28;4967862;28;20032;-73
2021/03/04 08:16:21;;;;;;;126.57;38.47;;;;;;;3.62;92.30;102269.19;4969859;28;20026;-76
2021/03/04 08:18:57;;;;;;;130.32;41.30;;;;;;;3.64;92.23;102276.91;4969529;28;20295;-73
2021/03/04 08:21:22;;;;;;;130.60;39.25;;;;;;;3.64;92.68;102267.63;4968490;28;20087;-73
2021/03/04 08:23:48;;;;;;;128.57;39.85;;;;;;;3.65;92.32;102276.16;4966511;28;20029;-73
2021/03/04 08:26:20;;;;;;;;;;;;;;;3.66;92.36;102276.25;4935048;28;20029;-72
2021/03/04 08:28:46;;;;;;;119.40;38.57;;;;;;;3.76;92.41;102282.91;4949560;28;20080;-73
2021/03/04 08:31:12;;;;;;;114.57;39.53;;;;;;;3.77;92.19;102273.63;4950200;28;20099;-73
2021/03/04 08:33:38;;;;;;;123.38;40.50;;;;;;;3.79;92.34;102277.16;4948897;28;20026;-71
2021/03/04 08:36:03;;;;;;;136.30;40.17;;;;;;;3.80;92.20;102278.91;4948318;28;20581;-73
2021/03/04 08:38:39;;;;;;;128.30;39.38;;;;;;;3.75;92.29;102271.84;4947963;28;20318;-73
2021/03/04 08:41:04;;;;;;;139.70;41.07;;;;;;;3.74;92.23;102271.75;4948325;28;20087;-71
2021/03/04 08:43:30;;;;;;;142.30;39.78;;;;;;;3.75;92.67;102271.84;4939520;28;20334;-72
2021/03/04 08:45:56;;;;;;;135.38;38.05;;;;;;;3.85;92.61;102267.44;4964570;28;20132;-75
2021/03/04 08:48:22;;;;;;;135.83;40.20;;;;;;;3.79;92.29;102257.72;4967551;28;20466;-73
2021/03/04 08:50:50;;;;;;;172.88;42.47;;;;;;;3.74;92.62;102264.13;4967412;28;20851;-73
2021/03/04 08:53:26;;;;;;;152.17;38.70;;;;;;;3.77;92.30;102271.06;4948724;28;20026;-73
2021/03/04 08:55:56;;;;;;;150.75;38.38;;;;;;;3.80;92.37;102256.94;4967418;28;20419;-73
2021/03/04 08:58:23;;;;;;;148.27;38.77;;;;;;;3.79;92.25;102264.44;4967130;28;20025;-74
2021/03/04 09:01:03;;;;;;;155.83;38.23;;;;;;;3.78;92.41;102261.03;4966868;28;20025;-74
2021/03/04 09:03:33;;;;;;;143.60;38.93;;;;;;;3.79;92.42;102261.91;4966815;28;20247;-74
2021/03/04 09:06:09;;;;;;;161.57;40.57;;;;;;;3.84;92.31;102256.38;4949505;28;20017;-73
2021/03/04 09:08:36;;;;;;;121.82;31.95;;;;;;;3.95;92.39;102255.53;4966913;28;20026;-73
2021/03/04 09:11:03;;;;;;;151.80;41.23;;;;;;;3.86;92.37;102259.03;4967616;28;20076;-72
2021/03/04 09:13:28;;;;;;;153.10;43.67;;;;;;;3.86;92.36;102254.84;4965981;28;20242;-72
2021/03/04 09:16:05;;;;;;;151.60;42.00;;;;;;;3.89;92.68;102255.06;4949330;28;20549;-72
2021/03/04 09:18:31;;;;;;;140.20;40.00;;;;;;;3.88;92.33;102262.56;4967151;28;20017;-71
2021/03/04 09:20:57;;;;;;;136.97;39.27;;;;;;;3.95;92.45;102257.19;4966829;28;20805;-71
2021/03/04 09:23:24;;;;;;;146.57;42.60;;;;;;;3.92;92.34;102250.22;4966351;28;20330;-72
2021/03/04 09:25:57;;;;;;;142.23;40.97;;;;;;;3.96;92.14;102256.41;4966674;28;20026;-72
2021/03/04 09:28:24;;;;;;;146.37;40.80;;;;;;;3.98;92.13;102259.94;4966673;28;20144;-74
2021/03/04 09:30:50;;;;;;;138.57;38.37;;;;;;;4.03;92.53;102263.69;4966931;28;20029;-71
2021/03/04 09:33:21;;;;;;;153.15;41.63;;;;;;;4.03;91.92;102261.16;4965501;28;20065;-71
2021/03/04 09:36:01;;;;;;;147.60;40.73;;;;;;;3.95;92.14;102255.53;4967166;28;20033;-71
2021/03/04 09:38:28;;;;;;;138.57;39.80;;;;;;;3.95;92.23;102254.66;4968827;28;20542;-72
2021/03/04 09:40:55;;;;;;;122.07;38.37;;;;;;;3.97;91.86;102264.16;4949811;28;20030;-72
2021/03/04 09:43:22;;;;;;;137.17;39.70;;;;;;;3.96;91.91;102259.84;4968803;28;20029;-71
2021/03/04 09:45:50;;;;;;;135.07;36.40;;;;;;;3.98;91.77;102258.28;4951466;28;20328;-71
2021/03/04 09:48:16;;;;;;;123.90;35.80;;;;;;;4.00;91.80;102268.56;4951199;28;20155;-71
2021/03/04 09:50:52;;;;;;;146.30;39.15;;;;;;;4.04;91.73;102260.38;4949787;28;20309;-73
2021/03/04 09:53:18;;;;;;;134.30;38.65;;;;;;;4.02;91.92;102259.41;4968375;28;20341;-71
2021/03/04 09:55:45;;;;;;;141.40;40.80;;;;;;;3.99;91.97;102259.19;4970139;28;20518;-72
2021/03/04 09:58:16;;;;;;;135.37;38.63;;;;;;;3.98;92.08;102258.28;4951296;28;20816;-71
2021/03/04 10:00:43;;;;;;;145.47;41.90;;;;;;;4.03;91.97;102258.63;4952034;28;20369;-71
2021/03/04 10:03:13;;;;;;;141.00;40.50;;;;;;;3.98;92.38;102255.75;4949730;28;20021;-72
2021/03/04 10:05:50;;;;;;;150.80;40.17;;;;;;;3.92;92.61;102256.97;4952209;28;20335;-71
2021/03/04 10:08:19;;;;;;;141.73;40.23;;;;;;;3.91;92.52;102261.16;4969411;28;20066;-72
2021/03/04 10:10:48;;;;;;;152.07;40.17;;;;;;;3.91;92.67;102253.53;4968833;28;20017;-72
2021/03/04 10:13:14;;;;;;;144.23;39.93;;;;;;;3.92;92.83;102256.97;4968486;28;20855;-71
2021/03/04 10:15:42;;;;;;;131.65;40.92;;;;;;;3.93;92.90;102256.19;4951369;28;20061;-72
2021/03/04 10:18:12;;;;;;;139.73;39.87;;;;;;;4.02;92.72;102257.72;4968863;28;20194;-71
2021/03/04 10:20:41;;;;;;;118.57;38.80;;;;;;;4.03;92.78;102258.63;4968699;28;20029;-71
2021/03/04 10:23:10;;;;;;;130.83;40.53;;;;;;;4.12;92.52;102259.28;4968386;28;20547;-72
2021/03/04 10:25:35;;;;;;;126.33;42.00;;;;;;;4.06;91.90;102261.38;4968801;28;20552;-71
2021/03/04 10:28:03;;;;;;;131.20;40.78;;;;;;;4.07;92.12;102260.59;4969195;28;20064;-72
2021/03/04 10:30:29;;;;;;;145.40;40.30;;;;;;;4.11;92.08;102257.50;4968827;28;20065;-72
2021/03/04 10:32:55;;;;;;;138.20;40.17;;;;;;;4.13;91.73;102265.25;4968195;28;20025;-72
2021/03/04 10:35:21;;;;;;;131.25;39.05;;;;;;;4.14;91.82;102256.84;4969599;28;20079;-71
2021/03/04 10:37:47;;;;;;;118.45;38.50;;;;;;;4.16;91.59;102257.84;4968701;28;20021;-71
2021/03/04 10:40:15;;;;;;;116.20;35.67;;;;;;;4.19;91.75;102248.75;4969071;28;20919;-71
2021/03/04 10:42:40;;;;;;;98.60;33.90;;;;;;;4.37;91.11;102252.63;4968534;28;20033;-72
2021/03/04 10:45:11;;;;;;;112.70;36.08;;;;;;;4.29;91.35;102243.56;4951165;28;20378;-72
2021/03/04 10:47:36;;;;;;;90.30;31.43;;;;;;;4.40;90.32;102246.88;4968592;28;20048;-73
2021/03/04 10:50:04;;;;;;;97.90;33.47;;;;;;;4.34;91.05;102249.00;4968817;28;20265;-72
2021/03/04 10:52:29;;;;;;;91.83;33.10;;;;;;;4.32;90.46;102251.44;4967576;28;20065;-72
2021/03/04 10:54:54;;;;;;;88.43;31.25;;;;;;;4.30;90.83;102252.97;4968478;28;20355;-72
2021/03/04 10:57:20;;;;;;;78.75;28.90;;;;;;;4.34;90.31;102254.97;4950207;28;20082;-72
2021/03/04 10:59:45;;;;;;;76.90;28.30;;;;;;;4.34;90.46;102262.59;4968517;28;20029;-71
2021/03/04 11:02:11;;;;;;;81.97;28.35;;;;;;;4.41;90.72;102255.38;4967540;28;20575;-71
2021/03/04 11:04:36;;;;;;;63.47;23.48;;;;;;;4.54;90.29;102261.44;4957822;28;20852;-72
2021/03/04 11:07:01;;;;;;;56.38;22.52;;;;;;;4.58;88.89;102260.03;4997369;28;20144;-72
2021/03/04 11:09:27;;;;;;;62.25;22.30;;;;;;;4.52;88.66;102265.53;4980580;28;20018;-71
2021/03/04 11:11:52;;;;;;;59.70;23.30;;;;;;;4.46;89.13;102272.75;4997355;28;20061;-71
2021/03/04 11:14:17;;;;;;;53.28;22.02;;;;;;;4.36;89.33;102271.22;4998628;28;20049;-74